UAL1432 KFLL-KEWR
Flight info
| Callsign | UAL1432 |
|---|---|
| Flight time | N/A |
| Altitude | 37000 |
| Route | FEALX2 ETECK GRUBR Y299 SEELO GARIC Q129 AARNN QUART PHLBO4 |
| Aircraft | B738/M-SDE2E3FGHIRWXY/LB1 |
Departure
| Time | N/A |
|---|---|
| Airport | Fort Lauderdale Hollywood International Airport (KFLL) |
Arrival
| Time | 2026-05-04 21:23 |
|---|---|
| Airport | Newark Liberty International Airport (KEWR) |
| Time | Latitude | Longitude | Altitude | Speed | Heading |
|---|---|---|---|---|---|
| 2026-05-04 20:41 | 41.40713 | -74.81430 | 32023 ft | 378 kts | 286° |
| 2026-05-04 20:41 | 41.41329 | -74.84879 | 31427 ft | 378 kts | 286° |
| 2026-05-04 20:41 | 41.41938 | -74.88239 | 30840 ft | 379 kts | 286° |
| 2026-05-04 20:41 | 41.42568 | -74.91657 | 30239 ft | 380 kts | 286° |
| 2026-05-04 20:42 | 41.43214 | -74.95076 | 29606 ft | 380 kts | 286° |
| 2026-05-04 20:42 | 41.43869 | -74.98490 | 28844 ft | 382 kts | 287° |
| 2026-05-04 20:42 | 41.44538 | -75.01931 | 28020 ft | 385 kts | 287° |
| 2026-05-04 20:42 | 41.45218 | -75.05381 | 27203 ft | 388 kts | 287° |
| 2026-05-04 20:43 | 41.45820 | -75.08909 | 26569 ft | 389 kts | 276° |
| 2026-05-04 20:43 | 41.45502 | -75.12435 | 26523 ft | 381 kts | 257° |
| 2026-05-04 20:43 | 41.44483 | -75.15609 | 26436 ft | 376 kts | 245° |
| 2026-05-04 20:43 | 41.42948 | -75.18391 | 26353 ft | 371 kts | 232° |
| 2026-05-04 20:44 | 41.40987 | -75.20595 | 26269 ft | 369 kts | 218° |
| 2026-05-04 20:44 | 41.38686 | -75.22073 | 26196 ft | 367 kts | 205° |
| 2026-05-04 20:44 | 41.36208 | -75.22860 | 26051 ft | 367 kts | 193° |
| 2026-05-04 20:44 | 41.33644 | -75.22873 | 25728 ft | 373 kts | 178° |
| 2026-05-04 20:45 | 41.31078 | -75.22319 | 25367 ft | 374 kts | 174° |
| 2026-05-04 20:45 | 41.28533 | -75.21629 | 25005 ft | 373 kts | 173° |
| 2026-05-04 20:45 | 41.25995 | -75.20907 | 24660 ft | 372 kts | 173° |
| 2026-05-04 20:45 | 41.23474 | -75.20198 | 24332 ft | 369 kts | 173° |
| 2026-05-04 20:46 | 41.20971 | -75.19511 | 24025 ft | 367 kts | 173° |
| 2026-05-04 20:46 | 41.18505 | -75.18850 | 23708 ft | 365 kts | 174° |
| 2026-05-04 20:46 | 41.16023 | -75.18195 | 23379 ft | 362 kts | 174° |
| 2026-05-04 20:46 | 41.13551 | -75.17548 | 23010 ft | 360 kts | 174° |
| 2026-05-04 20:47 | 41.11104 | -75.16912 | 22673 ft | 357 kts | 174° |
| 2026-05-04 20:47 | 41.08671 | -75.16280 | 22324 ft | 355 kts | 174° |
| 2026-05-04 20:47 | 41.06257 | -75.15655 | 21968 ft | 353 kts | 174° |
| 2026-05-04 20:47 | 41.03856 | -75.15033 | 21639 ft | 350 kts | 174° |
| 2026-05-04 20:48 | 41.01467 | -75.14415 | 21314 ft | 347 kts | 174° |
| 2026-05-04 20:48 | 40.99104 | -75.13804 | 20958 ft | 346 kts | 174° |
| 2026-05-04 20:48 | 40.96778 | -75.13203 | 20648 ft | 343 kts | 174° |
| 2026-05-04 20:48 | 40.94445 | -75.12600 | 20326 ft | 341 kts | 174° |
| 2026-05-04 20:49 | 40.92118 | -75.12000 | 20012 ft | 339 kts | 174° |
| 2026-05-04 20:49 | 40.89848 | -75.11143 | 19673 ft | 345 kts | 157° |
| 2026-05-04 20:49 | 40.87934 | -75.09205 | 19358 ft | 352 kts | 133° |
| 2026-05-04 20:49 | 40.86686 | -75.06435 | 19060 ft | 353 kts | 112° |
| 2026-05-04 20:50 | 40.85834 | -75.03407 | 18763 ft | 351 kts | 110° |
| 2026-05-04 20:50 | 40.85030 | -75.00366 | 18441 ft | 350 kts | 110° |
| 2026-05-04 20:50 | 40.84209 | -74.97345 | 18108 ft | 349 kts | 111° |
| 2026-05-04 20:50 | 40.83371 | -74.94347 | 17743 ft | 348 kts | 111° |
| 2026-05-04 20:51 | 40.82559 | -74.91351 | 17417 ft | 345 kts | 105° |
| 2026-05-04 20:51 | 40.82290 | -74.88263 | 17073 ft | 343 kts | 86° |
| 2026-05-04 20:51 | 40.82617 | -74.85168 | 16744 ft | 339 kts | 76° |
| 2026-05-04 20:51 | 40.83103 | -74.82197 | 16477 ft | 336 kts | 75° |
| 2026-05-04 20:52 | 40.83637 | -74.79133 | 16151 ft | 335 kts | 75° |
| 2026-05-04 20:52 | 40.84159 | -74.76144 | 15844 ft | 333 kts | 75° |
| 2026-05-04 20:52 | 40.84670 | -74.73172 | 15539 ft | 331 kts | 75° |
| 2026-05-04 20:52 | 40.85173 | -74.70206 | 15225 ft | 330 kts | 75° |
| 2026-05-04 20:53 | 40.85667 | -74.67253 | 14951 ft | 328 kts | 75° |
| 2026-05-04 20:53 | 40.86153 | -74.64320 | 14670 ft | 327 kts | 76° |
| 2026-05-04 20:53 | 40.86636 | -74.61392 | 14379 ft | 325 kts | 76° |
| 2026-05-04 20:53 | 40.87108 | -74.58515 | 14102 ft | 324 kts | 76° |
| 2026-05-04 20:54 | 40.87582 | -74.55617 | 13827 ft | 322 kts | 76° |
| 2026-05-04 20:54 | 40.88054 | -74.52728 | 13524 ft | 321 kts | 76° |
| 2026-05-04 20:54 | 40.88522 | -74.49850 | 13217 ft | 319 kts | 76° |
| 2026-05-04 20:54 | 40.88987 | -74.46992 | 12924 ft | 317 kts | 76° |
| 2026-05-04 20:55 | 40.89448 | -74.44153 | 12621 ft | 315 kts | 76° |
| 2026-05-04 20:55 | 40.89907 | -74.41324 | 12309 ft | 314 kts | 76° |
| 2026-05-04 20:55 | 40.90361 | -74.38520 | 12046 ft | 311 kts | 76° |
| 2026-05-04 20:55 | 40.90809 | -74.35747 | 11756 ft | 309 kts | 76° |
| 2026-05-04 20:56 | 40.91259 | -74.32954 | 11456 ft | 309 kts | 76° |
| 2026-05-04 20:56 | 40.91705 | -74.30187 | 11216 ft | 306 kts | 77° |
| 2026-05-04 20:56 | 40.92145 | -74.27448 | 10942 ft | 304 kts | 77° |
| 2026-05-04 20:56 | 40.92577 | -74.24756 | 10681 ft | 303 kts | 77° |
| 2026-05-04 20:57 | 40.93013 | -74.22037 | 10415 ft | 301 kts | 77° |
| 2026-05-04 20:57 | 40.93446 | -74.19335 | 10159 ft | 299 kts | 77° |
| 2026-05-04 20:57 | 40.93870 | -74.16674 | 10052 ft | 291 kts | 77° |
| 2026-05-04 20:57 | 40.94347 | -74.14115 | 9956 ft | 281 kts | 65° |
| 2026-05-04 20:58 | 40.95431 | -74.12058 | 9800 ft | 269 kts | 36° |
| 2026-05-04 20:58 | 40.97017 | -74.10891 | 9527 ft | 258 kts | 10° |
| 2026-05-04 20:58 | 40.98764 | -74.10697 | 9205 ft | 250 kts | 347° |
| 2026-05-04 20:58 | 41.00377 | -74.11389 | 8914 ft | 241 kts | 325° |
| 2026-05-04 20:59 | 41.01626 | -74.12794 | 8675 ft | 234 kts | 304° |
| 2026-05-04 20:59 | 41.02387 | -74.14634 | 8349 ft | 231 kts | 287° |
| 2026-05-04 20:59 | 41.02690 | -74.16700 | 8078 ft | 228 kts | 268° |
| 2026-05-04 20:59 | 41.02497 | -74.18769 | 7870 ft | 225 kts | 259° |
| 2026-05-04 21:00 | 41.02173 | -74.20793 | 7617 ft | 225 kts | 257° |
| 2026-05-04 21:00 | 41.01834 | -74.22822 | 7377 ft | 225 kts | 257° |
| 2026-05-04 21:00 | 41.01505 | -74.24826 | 7169 ft | 222 kts | 257° |
| 2026-05-04 21:00 | 41.01203 | -74.26680 | 6929 ft | 223 kts | 257° |
| 2026-05-04 21:01 | 41.00812 | -74.28664 | 6688 ft | 223 kts | 244° |
| 2026-05-04 21:01 | 40.99933 | -74.30329 | 6536 ft | 221 kts | 227° |
| 2026-05-04 21:01 | 40.98710 | -74.31529 | 6251 ft | 226 kts | 209° |
| 2026-05-04 21:01 | 40.97192 | -74.32130 | 6029 ft | 230 kts | 189° |
| 2026-05-04 21:02 | 40.95583 | -74.31952 | 5766 ft | 237 kts | 168° |
| 2026-05-04 21:02 | 40.94107 | -74.30960 | 5573 ft | 243 kts | 145° |
| 2026-05-04 21:02 | 40.93007 | -74.29230 | 5294 ft | 251 kts | 121° |
| 2026-05-04 21:02 | 40.92458 | -74.27038 | 5063 ft | 254 kts | 100° |
| 2026-05-04 21:03 | 40.92549 | -74.24702 | 4818 ft | 257 kts | 79° |
| 2026-05-04 21:03 | 40.92929 | -74.22389 | 4632 ft | 256 kts | 79° |
| 2026-05-04 21:03 | 40.93310 | -74.20088 | 4365 ft | 257 kts | 78° |
| 2026-05-04 21:03 | 40.93677 | -74.17788 | 4135 ft | 256 kts | 82° |
| 2026-05-04 21:04 | 40.93461 | -74.15495 | 4010 ft | 246 kts | 121° |
| 2026-05-04 21:04 | 40.92420 | -74.13835 | 3857 ft | 228 kts | 148° |
| 2026-05-04 21:04 | 40.91153 | -74.12769 | 3719 ft | 213 kts | 156° |
| 2026-05-04 21:04 | 40.89868 | -74.11837 | 3581 ft | 203 kts | 157° |
| 2026-05-04 21:05 | 40.88667 | -74.10925 | 3434 ft | 197 kts | 148° |
| 2026-05-04 21:05 | 40.87892 | -74.09455 | 3311 ft | 199 kts | 112° |
| 2026-05-04 21:05 | 40.87532 | -74.07709 | 3251 ft | 200 kts | 109° |
| 2026-05-04 21:05 | 40.86811 | -74.06272 | 3144 ft | 181 kts | 158° |
| 2026-05-04 21:06 | 40.85680 | -74.05697 | 3151 ft | 178 kts | 165° |
| 2026-05-04 21:06 | 40.84490 | -74.05245 | 3035 ft | 175 kts | 190° |
| 2026-05-04 21:06 | 40.83499 | -74.05951 | 3067 ft | 165 kts | 228° |
| 2026-05-04 21:06 | 40.82558 | -74.07001 | 2560 ft | 188 kts | 221° |
| 2026-05-04 21:07 | 40.81518 | -74.07979 | 2514 ft | 178 kts | 213° |
| 2026-05-04 21:07 | 40.80472 | -74.08755 | 2370 ft | 170 kts | 213° |
| 2026-05-04 21:07 | 40.79377 | -74.09424 | 1962 ft | 176 kts | 209° |
| 2026-05-04 21:07 | 40.78270 | -74.10147 | 1540 ft | 176 kts | 212° |
| 2026-05-04 21:08 | 40.77281 | -74.11036 | 1235 ft | 166 kts | 216° |
| 2026-05-04 21:08 | 40.76384 | -74.11797 | 1074 ft | 146 kts | 213° |
| 2026-05-04 21:08 | 40.75554 | -74.12414 | 841 ft | 129 kts | 211° |
| 2026-05-04 21:08 | 40.74815 | -74.12961 | 753 ft | 115 kts | 214° |
| 2026-05-04 21:09 | 40.73999 | -74.13412 | 789 ft | 141 kts | 202° |
| 2026-05-04 21:09 | 40.73159 | -74.14010 | 702 ft | 132 kts | 213° |
| 2026-05-04 21:09 | 40.72358 | -74.14511 | 505 ft | 122 kts | 210° |
| 2026-05-04 21:09 | 40.71648 | -74.14981 | 262 ft | 104 kts | 207° |
| 2026-05-04 21:10 | 40.71053 | -74.15344 | 93 ft | 89 kts | 208° |
| 2026-05-04 21:10 | 40.70418 | -74.15751 | 194 ft | 107 kts | 205° |
| 2026-05-04 21:10 | 40.69716 | -74.16173 | 171 ft | 123 kts | 205° |
| 2026-05-04 21:10 | 40.68848 | -74.16665 | 532 ft | 148 kts | 209° |
| 2026-05-04 21:11 | 40.67855 | -74.17315 | 982 ft | 170 kts | 210° |
| 2026-05-04 21:11 | 40.66869 | -74.17995 | 1783 ft | 139 kts | 210° |
| 2026-05-04 21:11 | 40.65994 | -74.18492 | 2323 ft | 141 kts | 195° |
| 2026-05-04 21:11 | 40.65090 | -74.18116 | 2500 ft | 152 kts | 141° |
| 2026-05-04 21:12 | 40.64759 | -74.16813 | 2490 ft | 161 kts | 81° |
| 2026-05-04 21:12 | 40.65429 | -74.15624 | 2500 ft | 167 kts | 22° |
| 2026-05-04 21:12 | 40.66548 | -74.15505 | 2334 ft | 172 kts | 353° |
| 2026-05-04 21:12 | 40.67787 | -74.15517 | 2154 ft | 182 kts | 346° |
| 2026-05-04 21:13 | 40.68814 | -74.16332 | 2316 ft | 180 kts | 296° |
| 2026-05-04 21:13 | 40.69429 | -74.17807 | 2736 ft | 189 kts | 298° |
| 2026-05-04 21:13 | 40.70118 | -74.19292 | 3090 ft | 188 kts | 294° |
| 2026-05-04 21:13 | 40.70657 | -74.20796 | 3156 ft | 175 kts | 289° |
| 2026-05-04 21:14 | 40.71166 | -74.22201 | 3005 ft | 169 kts | 291° |
| 2026-05-04 21:14 | 40.71798 | -74.23574 | 2672 ft | 182 kts | 314° |
| 2026-05-04 21:14 | 40.73046 | -74.24100 | 2885 ft | 213 kts | 1° |
| 2026-05-04 21:14 | 40.74526 | -74.23404 | 3008 ft | 245 kts | 23° |
| 2026-05-04 21:15 | 40.76133 | -74.22464 | 2993 ft | 254 kts | 19° |
| 2026-05-04 21:15 | 40.77778 | -74.21623 | 2980 ft | 254 kts | 17° |
| 2026-05-04 21:15 | 40.79460 | -74.20858 | 2993 ft | 258 kts | 15° |
| 2026-05-04 21:15 | 40.81172 | -74.20147 | 2986 ft | 259 kts | 14° |
| 2026-05-04 21:16 | 40.82903 | -74.19457 | 2995 ft | 260 kts | 13° |
| 2026-05-04 21:16 | 40.84624 | -74.18782 | 3001 ft | 256 kts | 14° |
| 2026-05-04 21:16 | 40.86322 | -74.18122 | 2999 ft | 253 kts | 13° |
| 2026-05-04 21:16 | 40.87881 | -74.17051 | 2984 ft | 256 kts | 42° |
| 2026-05-04 21:17 | 40.88813 | -74.15101 | 2974 ft | 249 kts | 75° |
| 2026-05-04 21:17 | 40.88857 | -74.13025 | 3002 ft | 211 kts | 108° |
| 2026-05-04 21:17 | 40.88284 | -74.11387 | 2999 ft | 191 kts | 129° |
| 2026-05-04 21:17 | 40.87408 | -74.10142 | 2977 ft | 180 kts | 150° |
| 2026-05-04 21:18 | 40.86358 | -74.09278 | 2972 ft | 178 kts | 156° |
| 2026-05-04 21:18 | 40.85272 | -74.08464 | 2984 ft | 180 kts | 156° |
| 2026-05-04 21:18 | 40.84164 | -74.07695 | 2977 ft | 179 kts | 167° |
| 2026-05-04 21:18 | 40.83017 | -74.07746 | 2887 ft | 158 kts | 205° |
| 2026-05-04 21:19 | 40.82087 | -74.08314 | 2727 ft | 140 kts | 209° |
| 2026-05-04 21:19 | 40.81203 | -74.08878 | 2440 ft | 138 kts | 210° |
| 2026-05-04 21:19 | 40.80368 | -74.09403 | 2282 ft | 134 kts | 210° |
| 2026-05-04 21:19 | 40.79524 | -74.09937 | 2079 ft | 133 kts | 209° |
| 2026-05-04 21:20 | 40.78688 | -74.10467 | 1902 ft | 135 kts | 210° |
| 2026-05-04 21:20 | 40.77848 | -74.11001 | 1731 ft | 133 kts | 209° |
| 2026-05-04 21:20 | 40.77022 | -74.11527 | 1552 ft | 131 kts | 208° |
| 2026-05-04 21:20 | 40.76190 | -74.12058 | 1400 ft | 136 kts | 208° |
| 2026-05-04 21:21 | 40.75333 | -74.12604 | 1204 ft | 136 kts | 208° |
| 2026-05-04 21:21 | 40.74485 | -74.13142 | 1047 ft | 137 kts | 209° |
| 2026-05-04 21:21 | 40.73625 | -74.13703 | 796 ft | 137 kts | 210° |
| 2026-05-04 21:21 | 40.72764 | -74.14257 | 634 ft | 139 kts | 210° |
| 2026-05-04 21:22 | 40.71911 | -74.14795 | 382 ft | 132 kts | 210° |
| 2026-05-04 21:22 | 40.71131 | -74.15308 | 195 ft | 119 kts | 207° |
| 2026-05-04 21:22 | 40.70372 | -74.15778 | 99 ft | 127 kts | 207° |
| 2026-05-04 21:22 | 40.69552 | -74.16292 | 39 ft | 134 kts | 207° |
| 2026-05-04 21:23 | 40.68719 | -74.16820 | 21 ft | 131 kts | 207° |
| 2026-05-04 21:23 | 40.68070 | -74.17233 | 17 ft | 60 kts | 207° |
| 2026-05-04 21:23 | 40.67958 | -74.17432 | 15 ft | 14 kts | 257° |
| 2026-05-04 21:23 | 40.67971 | -74.17589 | 14 ft | 21 kts | 292° |
| 2026-05-04 21:24 | 40.68039 | -74.17779 | 17 ft | 21 kts | 297° |
| 2026-05-04 21:24 | 40.68058 | -74.17828 | 17 ft | 0 kts | 296° |
| 2026-05-04 21:25 | 40.68105 | -74.17877 | 17 ft | 12 kts | 359° |
| 2026-05-04 21:25 | 40.68211 | -74.17799 | 18 ft | 26 kts | 27° |
| 2026-05-04 21:25 | 40.68431 | -74.17659 | 22 ft | 44 kts | 26° |
| 2026-05-04 21:25 | 40.68741 | -74.17461 | 23 ft | 51 kts | 26° |
| 2026-05-04 21:26 | 40.69060 | -74.17259 | 16 ft | 50 kts | 25° |
| 2026-05-04 21:26 | 40.69363 | -74.17080 | 17 ft | 46 kts | 12° |
| 2026-05-04 21:26 | 40.69660 | -74.17142 | 23 ft | 42 kts | 335° |
| 2026-05-04 21:26 | 40.69804 | -74.17288 | 24 ft | 38 kts | 313° |
| 2026-05-04 21:27 | 40.69894 | -74.17487 | 25 ft | 22 kts | 283° |
| 2026-05-04 21:27 | 40.69821 | -74.17630 | 21 ft | 16 kts | 194° |
| 2026-05-04 21:27 | 40.69760 | -74.17600 | 20 ft | 0 kts | 155° |